createdAt,value
2022-09-26T00:01:27.996Z,93.85
2022-09-26T00:03:57.812Z,93.04
2022-09-26T00:06:25.553Z,93.29
2022-09-26T00:08:52.987Z,93.15
2022-09-26T00:11:23.422Z,92.96
2022-09-26T00:13:54.379Z,93.42
2022-09-26T00:16:21.919Z,92.76
2022-09-26T00:18:52.855Z,92.49
2022-09-26T00:21:20.596Z,91.73
2022-09-26T00:23:47.645Z,92.04
2022-09-26T00:26:16.229Z,92.21
2022-09-26T00:28:42.937Z,91.82
2022-09-26T00:31:15.685Z,91.86
2022-09-26T00:33:43.085Z,91.87
2022-09-26T00:36:09.642Z,91.95
2022-09-26T00:38:36.826Z,92.06
2022-09-26T00:41:04.492Z,92.21
2022-09-26T00:43:33.796Z,92.20
2022-09-26T00:46:06.661Z,93.59
2022-09-26T00:48:36.555Z,92.97
2022-09-26T00:51:04.554Z,92.83
2022-09-26T00:53:42.390Z,93.44
2022-09-26T00:56:16.114Z,93.89
2022-09-26T00:59:01.108Z,94.52
2022-09-26T01:01:28.461Z,96.21
2022-09-26T01:03:56.325Z,96.30
2022-09-26T01:06:22.909Z,96.97
2022-09-26T01:09:12.519Z,96.36
2022-09-26T01:11:41.676Z,96.40
2022-09-26T01:14:11.154Z,96.28
2022-09-26T01:16:39.369Z,96.48
2022-09-26T01:19:34.034Z,96.27
2022-09-26T01:22:37.006Z,96.20
2022-09-26T01:25:31.096Z,96.87
2022-09-26T01:28:08.289Z,96.76
2022-09-26T01:31:35.452Z,97.94
2022-09-26T01:34:08.108Z,98.83
2022-09-26T01:36:53.206Z,97.91
2022-09-26T01:39:31.553Z,97.61
2022-09-26T01:42:20.587Z,97.71
2022-09-26T01:44:47.109Z,97.28
2022-09-26T01:47:15.929Z,97.77
2022-09-26T01:50:01.288Z,97.71
2022-09-26T01:52:41.666Z,97.66
2022-09-26T06:26:31.472Z,100.00
2022-09-26T06:29:00.438Z,100.00
2022-09-26T06:31:28.577Z,100.00
2022-09-26T06:33:55.426Z,100.00
2022-09-26T06:36:23.996Z,100.00
2022-09-26T06:38:51.686Z,100.00
2022-09-26T06:41:18.375Z,100.00
2022-09-26T06:43:45.622Z,100.00
2022-09-26T06:46:13.513Z,100.00
2022-09-26T06:48:40.466Z,100.00
2022-09-26T06:51:08.293Z,100.00
2022-09-26T06:53:37.674Z,100.00
2022-09-26T06:56:04.839Z,100.00
2022-09-26T06:58:32.344Z,100.00
2022-09-26T07:00:59.873Z,100.00
2022-09-26T07:03:26.774Z,100.00
2022-09-26T07:05:57.209Z,100.00
2022-09-26T07:08:43.376Z,100.00
2022-09-26T07:11:32.821Z,99.41
2022-09-26T07:14:00.251Z,98.23
2022-09-26T07:16:27.238Z,96.91
2022-09-26T07:18:54.938Z,95.79
2022-09-26T07:21:21.632Z,94.64
2022-09-26T07:23:48.272Z,94.12
2022-09-26T07:26:14.896Z,93.64
2022-09-26T07:28:41.535Z,93.98
2022-09-26T07:31:08.189Z,93.06
2022-09-26T07:33:34.799Z,92.50
2022-09-26T07:36:05.248Z,92.85
2022-09-26T07:38:32.404Z,91.10
2022-09-26T07:41:00.909Z,90.85
2022-09-26T07:43:53.674Z,91.15
2022-09-26T07:46:32.878Z,91.13
2022-09-26T07:49:18.244Z,90.00
2022-09-26T07:51:44.847Z,88.97
2022-09-26T07:54:11.406Z,88.33
2022-09-26T07:56:38.993Z,88.70
2022-09-26T07:59:06.283Z,88.78
2022-09-26T08:01:33.314Z,89.08
2022-09-26T08:03:59.996Z,89.05
2022-09-26T08:06:27.672Z,87.65
2022-09-26T08:08:55.084Z,87.11
2022-09-26T08:11:22.486Z,87.76
2022-09-26T08:13:50.013Z,86.18
2022-09-26T08:16:23.881Z,85.52
2022-09-26T08:18:52.110Z,84.25
2022-09-26T08:21:19.700Z,85.34
2022-09-26T08:23:46.964Z,85.37
2022-09-26T08:26:14.039Z,84.85
2022-09-26T08:28:41.069Z,85.46
2022-09-26T08:31:08.328Z,85.05
2022-09-26T08:33:38.850Z,84.38
2022-09-26T08:36:11.216Z,83.15
2022-09-26T08:38:38.921Z,83.28
2022-09-26T08:41:50.056Z,83.77
2022-09-26T08:44:38.183Z,82.12
2022-09-26T08:47:34.780Z,82.75
2022-09-26T08:50:17.330Z,82.16
2022-09-26T08:52:53.010Z,82.88
2022-09-26T08:55:19.604Z,82.22
2022-09-26T08:57:56.612Z,82.01
2022-09-26T09:00:25.871Z,81.34
2022-09-26T09:03:20.104Z,82.49
2022-09-26T09:05:53.532Z,80.20
2022-09-26T09:08:24.637Z,79.83
2022-09-26T09:11:03.330Z,80.22
2022-09-26T09:13:56.340Z,79.40
2022-09-26T09:16:35.785Z,79.38
2022-09-26T09:19:20.574Z,78.50
2022-09-26T09:22:00.639Z,78.59
2022-09-26T09:24:50.714Z,77.87
2022-09-26T09:28:05.495Z,78.34
2022-09-26T09:30:41.413Z,78.00
2022-09-26T09:33:43.712Z,78.89
2022-09-26T09:36:38.157Z,77.23
2022-09-26T09:39:08.149Z,78.24
2022-09-26T09:41:47.554Z,76.81
2022-09-26T09:44:46.714Z,77.08
2022-09-26T09:47:15.324Z,77.10
2022-09-26T09:49:44.116Z,75.58
2022-09-26T09:52:20.109Z,75.31
2022-09-26T09:55:37.697Z,70.85
2022-09-26T09:58:07.227Z,67.61
2022-09-26T10:00:36.484Z,66.30
2022-09-26T10:03:24.417Z,67.18
2022-09-26T10:05:56.907Z,66.94
2022-09-26T10:08:40.486Z,66.53
2022-09-26T10:11:13.160Z,66.82
2022-09-26T10:13:43.036Z,66.37
2022-09-26T10:16:15.471Z,66.82
2022-09-26T10:19:04.252Z,66.45
2022-09-26T10:21:34.296Z,65.10
2022-09-26T10:24:05.020Z,64.34
2022-09-26T10:26:36.502Z,64.07
2022-09-26T10:29:08.892Z,64.56
2022-09-26T10:31:42.303Z,63.46
2022-09-26T10:34:28.283Z,62.24
2022-09-26T10:36:56.376Z,63.13
2022-09-26T10:39:48.619Z,63.09
2022-09-26T10:42:16.582Z,64.26
2022-09-26T10:44:43.275Z,61.26
2022-09-26T10:47:16.079Z,60.40
2022-09-26T10:49:51.181Z,61.85
2022-09-26T10:52:27.938Z,60.86
2022-09-26T10:55:05.142Z,57.83
2022-09-26T10:57:40.791Z,57.77
2022-09-26T11:00:08.021Z,56.82
2022-09-26T11:02:36.217Z,58.14
2022-09-26T11:05:24.262Z,58.86
2022-09-26T11:07:52.515Z,58.29
2022-09-26T11:10:32.498Z,59.38
2022-09-26T11:13:42.792Z,57.40
2022-09-26T11:16:13.093Z,58.04
2022-09-26T11:18:52.028Z,57.13
2022-09-26T11:21:33.674Z,56.52
2022-09-26T11:24:37.935Z,57.78
2022-09-26T11:30:12.673Z,56.60
2022-09-26T11:32:43.153Z,56.51
2022-09-26T11:35:38.220Z,54.54
2022-09-26T11:38:20.553Z,53.30
2022-09-26T11:40:56.105Z,55.42
2022-09-26T11:43:38.397Z,54.19
2022-09-26T11:46:23.691Z,55.44
2022-09-26T11:49:15.384Z,54.74
2022-09-26T11:52:10.083Z,52.51
2022-09-26T11:54:59.730Z,53.95
2022-09-26T11:57:48.157Z,53.57
2022-09-26T12:00:27.618Z,52.26
2022-09-26T12:03:22.355Z,50.94
2022-09-26T12:05:49.087Z,51.77
2022-09-26T12:08:47.639Z,52.79
2022-09-26T12:11:34.456Z,53.92
2022-09-26T12:14:25.289Z,51.47
2022-09-26T12:16:59.594Z,51.45
2022-09-26T12:19:32.016Z,51.16
2022-09-26T12:22:29.474Z,51.67
2022-09-26T12:25:36.194Z,52.75
2022-09-26T12:28:27.728Z,51.41
2022-09-26T12:31:20.732Z,49.18
2022-09-26T12:33:53.393Z,48.64
2022-09-26T12:36:48.064Z,49.32
2022-09-26T12:39:55.258Z,48.18
2022-09-26T12:42:43.058Z,49.60
2022-09-26T12:45:18.580Z,47.45
2022-09-26T12:47:57.270Z,46.67
2022-09-26T12:50:35.690Z,48.03
2022-09-26T12:53:20.617Z,43.69
2022-09-26T12:56:01.338Z,45.49
2022-09-26T12:58:43.547Z,47.38
2022-09-26T13:01:32.555Z,47.74
2022-09-26T13:04:17.624Z,46.51
2022-09-26T13:07:17.902Z,46.68
2022-09-26T13:10:13.225Z,47.74
2022-09-26T13:12:52.037Z,48.85
2022-09-26T13:15:34.896Z,48.95
2022-09-26T13:18:08.865Z,50.38
2022-09-26T13:20:50.492Z,50.44
2022-09-26T13:23:27.449Z,50.46
2022-09-26T13:26:09.674Z,51.07
2022-09-26T13:29:00.789Z,49.67
2022-09-26T13:31:41.989Z,49.34
2022-09-26T13:34:21.706Z,51.44
2022-09-26T13:36:50.094Z,51.28
2022-09-26T13:39:41.341Z,50.77
2022-09-26T13:42:37.369Z,51.23
2022-09-26T13:45:24.333Z,49.84
2022-09-26T13:48:16.777Z,52.33
2022-09-26T13:50:46.636Z,53.58
2022-09-26T13:53:26.951Z,52.21
2022-09-26T13:56:31.335Z,52.44
2022-09-26T13:59:13.123Z,52.28
2022-09-26T14:02:18.364Z,52.23
2022-09-26T14:04:48.073Z,53.02
2022-09-26T14:07:34.377Z,52.44
2022-09-26T14:10:12.228Z,53.27
2022-09-26T14:13:08.498Z,54.21
2022-09-26T14:15:47.375Z,55.60
2022-09-26T14:18:34.151Z,55.83
2022-09-26T14:21:10.011Z,55.75
2022-09-26T14:23:50.689Z,53.13
2022-09-26T14:26:44.489Z,55.10
2022-09-26T14:29:45.382Z,54.57
2022-09-26T14:32:37.401Z,54.70
2022-09-26T14:35:39.782Z,55.23
2022-09-26T14:38:19.872Z,54.97
2022-09-26T14:40:58.134Z,55.77
2022-09-26T14:43:29.136Z,56.25
2022-09-26T14:46:15.645Z,56.20
2022-09-26T14:48:43.187Z,56.21
2022-09-26T14:51:12.651Z,55.37
2022-09-26T14:53:48.254Z,55.75
2022-09-26T14:56:37.278Z,55.91
2022-09-26T14:59:16.112Z,55.08
2022-09-26T15:01:44.597Z,54.55
2022-09-26T15:04:27.765Z,55.20
2022-09-26T15:07:00.276Z,55.94
2022-09-26T15:09:43.743Z,56.31
2022-09-26T15:12:16.873Z,56.60
2022-09-26T15:15:09.053Z,57.28
2022-09-26T15:17:41.569Z,56.87
2022-09-26T15:20:13.736Z,57.54
2022-09-26T15:22:42.625Z,57.73
2022-09-26T15:25:31.136Z,57.37
2022-09-26T15:27:59.203Z,57.51
2022-09-26T15:30:37.615Z,56.79
2022-09-26T15:33:04.897Z,57.90
2022-09-26T15:35:32.455Z,58.14
2022-09-26T15:38:03.847Z,56.40
2022-09-26T15:40:32.090Z,57.59
2022-09-26T15:43:12.962Z,57.73
2022-09-26T15:46:03.482Z,57.05
2022-09-26T15:48:33.022Z,57.76
2022-09-26T15:51:17.909Z,56.78
2022-09-26T15:53:50.478Z,57.37
2022-09-26T15:56:23.216Z,57.38
2022-09-26T15:58:51.790Z,57.48
2022-09-26T16:01:25.181Z,58.02
2022-09-26T16:04:13.581Z,58.95
2022-09-26T16:06:50.564Z,59.25
2022-09-26T16:09:21.918Z,59.88
2022-09-26T16:11:58.277Z,60.22
2022-09-26T16:14:58.445Z,60.60
2022-09-26T16:17:32.568Z,60.39
2022-09-26T16:20:25.551Z,59.31
2022-09-26T16:22:53.571Z,60.82
2022-09-26T16:25:47.943Z,60.24
2022-09-26T16:28:15.687Z,60.88
2022-09-26T16:30:45.322Z,60.63
2022-09-26T16:33:34.249Z,61.57
2022-09-26T16:36:09.503Z,62.19
2022-09-26T16:38:36.815Z,61.41
2022-09-26T16:41:59.554Z,61.17
2022-09-26T16:44:27.547Z,61.21
2022-09-26T16:47:00.264Z,61.43
2022-09-26T16:49:43.028Z,61.14
2022-09-26T16:52:21.952Z,61.70
2022-09-26T16:54:49.081Z,61.66
2022-09-26T16:57:23.080Z,61.15
2022-09-26T16:59:51.655Z,61.61
2022-09-26T17:02:18.575Z,61.82
2022-09-26T17:04:45.273Z,61.95
2022-09-26T17:07:14.737Z,62.11
2022-09-26T17:09:42.725Z,63.03
2022-09-26T17:12:18.144Z,62.79
2022-09-26T17:14:48.302Z,62.56
2022-09-26T17:17:20.680Z,63.22
2022-09-26T17:19:49.252Z,63.31
2022-09-26T17:22:18.497Z,63.22
2022-09-26T17:24:45.766Z,63.36
2022-09-26T17:27:28.917Z,63.05
2022-09-26T17:30:00.464Z,63.70
2022-09-26T17:32:44.207Z,64.05
2022-09-26T17:35:16.859Z,64.34
2022-09-26T17:37:43.497Z,65.03
2022-09-26T17:40:34.626Z,65.26
2022-09-26T17:43:02.063Z,66.20
2022-09-26T17:45:40.692Z,65.78
2022-09-26T17:48:14.912Z,65.58
2022-09-26T17:50:42.925Z,66.21
2022-09-26T17:53:20.591Z,67.49
2022-09-26T17:55:48.433Z,67.02
2022-09-26T17:58:15.868Z,66.84
2022-09-26T18:00:44.109Z,66.68
2022-09-26T18:03:21.268Z,67.24
2022-09-26T18:05:48.021Z,67.81
2022-09-26T18:08:22.584Z,67.78
2022-09-26T18:10:56.910Z,67.63
2022-09-26T18:13:33.859Z,68.15
2022-09-26T18:16:01.387Z,68.43
2022-09-26T18:18:30.338Z,68.53
2022-09-26T18:20:58.963Z,68.18
2022-09-26T18:23:49.712Z,68.57
2022-09-26T18:26:30.234Z,67.79
2022-09-26T18:29:03.533Z,68.00
2022-09-26T18:31:33.468Z,68.61
2022-09-26T18:34:03.089Z,68.66
2022-09-26T18:36:35.805Z,68.83
2022-09-26T18:39:03.638Z,68.80
2022-09-26T18:41:30.466Z,69.30
2022-09-26T18:44:00.573Z,68.88
2022-09-26T18:46:29.264Z,69.35
2022-09-26T18:49:06.273Z,69.25
2022-09-26T18:51:33.539Z,69.95
2022-09-26T18:54:01.715Z,70.27
2022-09-26T18:56:47.066Z,70.85
2022-09-26T18:59:14.753Z,71.26
2022-09-26T19:01:43.240Z,71.18
2022-09-26T19:04:17.898Z,72.47
2022-09-26T19:06:47.439Z,73.13
2022-09-26T19:09:15.786Z,72.68
2022-09-26T19:11:42.820Z,73.35
2022-09-26T19:14:18.380Z,73.84
2022-09-26T19:16:47.617Z,73.08
2022-09-26T19:19:15.085Z,73.69
2022-09-26T19:21:44.568Z,74.19
2022-09-26T19:24:11.032Z,74.34
2022-09-26T19:26:41.799Z,74.33
2022-09-26T19:29:15.206Z,74.56
2022-09-26T19:31:43.646Z,74.52
2022-09-26T19:34:15.443Z,74.73
2022-09-26T19:36:42.133Z,74.81
2022-09-26T19:39:18.187Z,74.96
2022-09-26T19:41:44.734Z,76.08
2022-09-26T19:44:12.415Z,76.39
2022-09-26T19:46:40.174Z,76.67
2022-09-26T19:49:07.856Z,77.10
2022-09-26T19:51:39.573Z,76.96
2022-09-26T19:54:06.698Z,76.27
2022-09-26T19:56:34.911Z,76.69
2022-09-26T19:59:01.878Z,76.54
2022-09-26T20:01:28.539Z,76.63
2022-09-26T20:03:55.216Z,76.98
2022-09-26T20:06:24.668Z,77.10
2022-09-26T20:08:53.238Z,79.12
2022-09-26T20:11:22.429Z,79.31
2022-09-26T20:14:07.488Z,80.16
2022-09-26T20:16:38.559Z,81.33
2022-09-26T20:19:06.906Z,82.82
2022-09-26T20:21:34.508Z,84.08
2022-09-26T20:24:01.697Z,84.46
2022-09-26T20:26:30.354Z,85.31
2022-09-26T20:28:57.380Z,87.42
2022-09-26T20:31:28.711Z,89.00
2022-09-26T20:33:59.276Z,90.24
2022-09-26T20:36:33.755Z,91.18
2022-09-26T20:39:04.137Z,91.68
2022-09-26T20:41:30.652Z,90.65
2022-09-26T20:44:02.151Z,89.59
2022-09-26T20:46:33.588Z,91.01
2022-09-26T20:49:03.225Z,90.33
2022-09-26T20:51:30.948Z,91.91
2022-09-26T20:54:01.194Z,90.19
2022-09-26T20:56:28.399Z,91.51
2022-09-26T20:58:55.187Z,92.70
2022-09-26T21:01:22.600Z,91.25
2022-09-26T21:03:55.224Z,91.71
2022-09-26T21:06:33.400Z,91.27
2022-09-26T21:09:01.299Z,91.74
2022-09-26T21:11:27.839Z,91.91
2022-09-26T21:13:54.484Z,90.81
2022-09-26T21:16:21.978Z,92.54
2022-09-26T21:18:51.467Z,92.66
2022-09-26T21:21:28.676Z,90.70
2022-09-26T21:23:56.268Z,90.56
2022-09-26T21:26:25.242Z,92.07
2022-09-26T21:28:53.699Z,91.89
2022-09-26T21:31:28.708Z,91.39
2022-09-26T21:33:57.631Z,91.91
2022-09-26T21:36:25.970Z,91.19
2022-09-26T21:38:55.696Z,90.63
2022-09-26T21:41:23.887Z,90.82
2022-09-26T21:44:02.359Z,91.05
2022-09-26T21:46:29.497Z,92.01
2022-09-26T21:48:56.131Z,91.63
2022-09-26T21:51:25.628Z,92.30
2022-09-26T21:53:56.847Z,92.54
2022-09-26T21:56:29.032Z,91.67
2022-09-26T21:58:56.689Z,92.29
2022-09-26T22:01:24.087Z,91.19
2022-09-26T22:03:50.947Z,91.56
2022-09-26T22:06:17.591Z,92.79
2022-09-26T22:08:44.186Z,92.34
2022-09-26T22:11:10.883Z,91.61
2022-09-26T22:13:38.047Z,91.34
2022-09-26T22:16:09.391Z,92.32
2022-09-26T22:18:37.316Z,91.53
2022-09-26T22:21:04.772Z,91.59
2022-09-26T22:23:33.532Z,91.60
2022-09-26T22:26:00.405Z,91.53
2022-09-26T22:28:27.599Z,90.72
2022-09-26T22:30:57.313Z,91.16
2022-09-26T22:33:24.062Z,91.43
2022-09-26T22:35:51.429Z,92.22
2022-09-26T22:38:18.491Z,92.27
2022-09-26T22:40:46.358Z,92.34
2022-09-26T22:43:12.990Z,92.54
2022-09-26T22:45:40.064Z,92.95
2022-09-26T22:48:06.672Z,92.54
2022-09-26T22:50:33.386Z,93.04
2022-09-26T22:53:00.026Z,92.86
2022-09-26T22:55:26.683Z,92.00
2022-09-26T22:57:53.492Z,92.20
2022-09-26T23:00:20.198Z,92.61
2022-09-26T23:02:46.849Z,92.85
2022-09-26T23:05:13.730Z,93.51
2022-09-26T23:07:40.313Z,94.21
2022-09-26T23:10:07.678Z,94.77
2022-09-26T23:12:34.595Z,94.61
2022-09-26T23:15:01.234Z,94.41
2022-09-26T23:17:28.013Z,95.14
2022-09-26T23:19:54.681Z,96.01
2022-09-26T23:22:21.351Z,95.44
2022-09-26T23:24:48.042Z,95.62
2022-09-26T23:27:14.673Z,95.51
2022-09-26T23:29:41.882Z,96.19
2022-09-26T23:32:08.478Z,95.01
2022-09-26T23:34:35.173Z,95.57
2022-09-26T23:37:01.736Z,96.19
2022-09-26T23:39:28.334Z,96.36
2022-09-26T23:41:55.012Z,96.86
2022-09-26T23:44:21.633Z,97.27
2022-09-26T23:46:48.223Z,97.21
2022-09-26T23:49:15.004Z,97.38
2022-09-26T23:51:42.441Z,97.82
2022-09-26T23:54:09.162Z,98.22
2022-09-26T23:56:35.874Z,98.48
2022-09-26T23:59:02.599Z,97.55
